createdAt,value
2019-02-05T00:04:42.181Z,70.60
2019-02-05T00:07:27.245Z,70.10
2019-02-05T00:10:21.164Z,70.50
2019-02-05T00:13:05.605Z,70.90
2019-02-05T00:15:50.926Z,71.30
2019-02-05T00:18:44.864Z,71.40
2019-02-05T00:21:29.665Z,71.40
2019-02-05T00:24:14.584Z,70.80
2019-02-05T00:26:59.606Z,69.50
2019-02-05T00:29:53.276Z,69.10
2019-02-05T00:32:37.732Z,68.50
2019-02-05T00:35:22.847Z,68.00
2019-02-05T00:38:07.973Z,67.30
2019-02-05T00:41:01.712Z,67.50
2019-02-05T00:43:46.872Z,68.00
2019-02-05T00:46:40.592Z,69.00
2019-02-05T00:49:25.441Z,68.60
2019-02-05T00:52:10.124Z,68.40
2019-02-05T00:54:55.210Z,68.30
2019-02-05T00:57:40.632Z,68.20
2019-02-05T01:00:34.017Z,69.00
2019-02-05T01:03:19.056Z,69.50
2019-02-05T01:06:12.988Z,70.00
2019-02-05T01:08:58.069Z,70.00
2019-02-05T01:11:44.212Z,69.40
2019-02-05T01:14:28.993Z,69.70
2019-02-05T01:17:13.869Z,70.00
2019-02-05T01:20:07.884Z,71.20
2019-02-05T01:23:01.997Z,71.60
2019-02-05T01:25:57.404Z,71.60
2019-02-05T01:28:42.285Z,71.90
2019-02-05T01:31:27.356Z,72.30
2019-02-05T01:34:21.688Z,72.80
2019-02-05T01:37:15.276Z,72.60
2019-02-05T01:40:00.096Z,71.70
2019-02-05T01:42:45.572Z,70.30
2019-02-05T01:45:38.984Z,69.70
2019-02-05T01:48:23.656Z,70.00
2019-02-05T01:51:08.343Z,71.20
2019-02-05T01:53:53.291Z,71.70
2019-02-05T01:56:40.846Z,72.40
2019-02-05T01:59:24.079Z,73.20
2019-02-05T02:02:08.691Z,73.70
2019-02-05T02:04:53.188Z,73.60
2019-02-05T02:07:47.015Z,73.60
2019-02-05T02:10:40.947Z,73.60
2019-02-05T02:13:25.695Z,73.40
2019-02-05T02:16:10.058Z,73.10
2019-02-05T02:18:54.851Z,73.00
2019-02-05T02:21:39.010Z,73.30
2019-02-05T02:24:32.864Z,73.10
2019-02-05T02:27:18.251Z,73.00
2019-02-05T02:30:03.305Z,73.00
2019-02-05T02:32:48.292Z,73.10
2019-02-05T02:35:33.030Z,73.40
2019-02-05T02:38:17.654Z,73.50
2019-02-05T02:41:10.989Z,73.00
2019-02-05T02:43:55.612Z,72.60
2019-02-05T02:46:40.192Z,72.10
2019-02-05T02:49:25.336Z,71.70
2019-02-05T02:52:10.263Z,72.30
2019-02-05T02:54:54.462Z,73.30
2019-02-05T02:57:39.767Z,74.00
2019-02-05T03:00:25.278Z,74.00
2019-02-05T03:03:18.789Z,74.20
2019-02-05T03:06:03.592Z,74.80
2019-02-05T03:08:48.655Z,75.00
2019-02-05T03:11:44.144Z,75.00
2019-02-05T03:14:28.912Z,74.90
2019-02-05T03:17:13.924Z,75.20
2019-02-05T03:19:58.835Z,74.90
2019-02-05T03:22:45.372Z,74.70
2019-02-05T03:25:39.358Z,74.00
2019-02-05T03:28:24.235Z,73.80
2019-02-05T03:31:09.057Z,73.60
2019-02-05T03:33:54.167Z,73.00
2019-02-05T03:36:48.112Z,72.60
2019-02-05T03:39:42.377Z,71.80
2019-02-05T03:42:35.949Z,72.30
2019-02-05T03:45:20.982Z,72.30
2019-02-05T03:48:06.967Z,73.50
2019-02-05T03:50:51.595Z,74.80
2019-02-05T03:53:36.076Z,75.80
2019-02-05T03:56:20.707Z,75.40
2019-02-05T03:59:05.482Z,74.90
2019-02-05T04:01:59.290Z,74.40
2019-02-05T04:04:52.948Z,73.70
2019-02-05T04:07:37.402Z,73.50
2019-02-05T04:10:22.656Z,74.00
2019-02-05T04:13:08.175Z,75.70
2019-02-05T04:15:54.202Z,76.90
2019-02-05T04:18:48.168Z,77.00
2019-02-05T04:21:42.015Z,76.30
2019-02-05T04:24:27.425Z,75.80
2019-02-05T04:27:21.188Z,76.40
2019-02-05T04:30:14.957Z,77.00
2019-02-05T04:32:59.751Z,77.20
2019-02-05T04:35:44.697Z,77.50
2019-02-05T04:38:29.545Z,77.50
2019-02-05T04:41:23.776Z,77.40
2019-02-05T04:44:17.503Z,77.30
2019-02-05T04:47:02.537Z,78.20
2019-02-05T04:49:56.355Z,78.90
2019-02-05T04:52:40.734Z,80.10
2019-02-05T04:55:25.755Z,80.80
2019-02-05T04:58:10.519Z,81.40
2019-02-05T05:00:55.763Z,81.00
2019-02-05T05:03:40.740Z,80.40
2019-02-05T05:06:34.436Z,80.00
2019-02-05T05:09:19.223Z,79.60
2019-02-05T05:12:04.144Z,79.30
2019-02-05T05:14:49.256Z,78.70
2019-02-05T05:17:43.163Z,78.30
2019-02-05T05:20:28.023Z,79.30
2019-02-05T05:23:12.557Z,79.80
2019-02-05T05:25:56.876Z,80.60
2019-02-05T05:28:50.440Z,80.90
2019-02-05T05:31:35.039Z,81.00
2019-02-05T05:34:20.193Z,81.00
2019-02-05T05:37:14.555Z,80.90
2019-02-05T05:40:07.823Z,80.70
2019-02-05T05:42:52.342Z,80.30
2019-02-05T05:45:37.283Z,80.30
2019-02-05T05:48:22.714Z,80.30
2019-02-05T05:51:16.943Z,80.80
2019-02-05T05:54:10.433Z,81.20
2019-02-05T05:56:55.415Z,81.70
2019-02-05T05:59:39.916Z,81.80
2019-02-05T06:02:24.938Z,82.10
2019-02-05T06:05:09.487Z,82.80
2019-02-05T06:07:54.232Z,82.70
2019-02-05T06:10:39.256Z,82.40
2019-02-05T06:13:24.452Z,82.10
2019-02-05T06:16:18.115Z,81.90
2019-02-05T06:19:03.129Z,81.40
2019-02-05T06:21:47.876Z,81.30
2019-02-05T06:24:32.990Z,81.10
2019-02-05T06:27:17.406Z,81.30
2019-02-05T06:30:11.848Z,81.90
2019-02-05T06:33:06.128Z,82.80
2019-02-05T06:35:59.977Z,83.20
2019-02-05T06:38:44.942Z,83.40
2019-02-05T06:41:30.900Z,83.50
2019-02-05T06:44:15.811Z,83.90
2019-02-05T06:47:00.843Z,84.00
2019-02-05T06:49:54.858Z,84.40
2019-02-05T06:52:40.055Z,83.30
2019-02-05T06:55:25.339Z,82.90
2019-02-05T06:58:09.791Z,82.50
2019-02-05T07:01:03.951Z,82.70
2019-02-05T07:03:57.447Z,82.80
2019-02-05T07:06:42.072Z,82.80
2019-02-05T07:09:36.092Z,82.50
2019-02-05T07:12:20.820Z,82.40
2019-02-05T07:15:06.196Z,82.60
2019-02-05T07:18:00.144Z,83.00
2019-02-05T07:20:44.995Z,82.60
2019-02-05T07:23:29.246Z,82.30
2019-02-05T07:26:13.951Z,82.40
2019-02-05T07:29:02.083Z,82.40
2019-02-05T07:31:45.063Z,82.40
2019-02-05T07:34:29.865Z,82.40
2019-02-05T07:37:15.206Z,83.20
2019-02-05T07:40:00.663Z,83.10
2019-02-05T07:42:46.159Z,82.90
2019-02-05T07:45:31.150Z,82.80
2019-02-05T07:48:15.878Z,82.60
2019-02-05T07:51:00.712Z,82.70
2019-02-05T07:53:45.640Z,82.60
2019-02-05T07:56:30.404Z,82.60
2019-02-05T07:59:15.485Z,82.20
2019-02-05T08:02:00.643Z,81.90
2019-02-05T08:04:54.055Z,82.00
2019-02-05T08:07:39.351Z,82.00
2019-02-05T08:10:33.155Z,82.00
2019-02-05T08:13:26.767Z,82.50
2019-02-05T08:16:11.395Z,82.10
2019-02-05T08:18:56.828Z,81.90
2019-02-05T08:21:42.132Z,81.20
2019-02-05T08:24:38.544Z,81.00
2019-02-05T08:27:23.311Z,80.50
2019-02-05T08:30:07.839Z,80.10
2019-02-05T08:32:54.470Z,79.40
2019-02-05T08:35:39.463Z,79.20
2019-02-05T08:38:24.396Z,78.50
2019-02-05T08:41:09.047Z,78.50
2019-02-05T08:43:54.387Z,77.10
2019-02-05T08:46:48.005Z,75.20
2019-02-05T08:49:32.938Z,73.70
2019-02-05T08:52:17.592Z,72.70
2019-02-05T08:55:03.206Z,71.40
2019-02-05T08:57:56.562Z,70.70
2019-02-05T09:00:50.767Z,70.00
2019-02-05T09:03:36.534Z,68.80
2019-02-05T09:06:20.994Z,67.70
2019-02-05T09:09:14.656Z,67.00
2019-02-05T09:12:08.674Z,67.00
2019-02-05T09:14:53.482Z,67.30
2019-02-05T09:17:38.427Z,67.70
2019-02-05T09:20:32.773Z,66.90
2019-02-05T09:23:26.953Z,65.10
2019-02-05T09:26:12.006Z,64.70
2019-02-05T09:28:56.772Z,64.80
2019-02-05T09:31:41.390Z,65.30
2019-02-05T09:34:35.012Z,64.20
2019-02-05T09:37:20.058Z,63.60
2019-02-05T09:40:13.878Z,64.10
2019-02-05T09:43:00.438Z,63.50
2019-02-05T09:45:54.393Z,63.10
2019-02-05T09:48:39.370Z,62.40
2019-02-05T09:51:33.561Z,62.10
2019-02-05T09:54:27.395Z,61.40
2019-02-05T09:57:11.740Z,60.40
2019-02-05T09:59:56.635Z,59.40
2019-02-05T10:02:41.353Z,59.40
2019-02-05T10:05:26.290Z,59.40
2019-02-05T10:08:10.867Z,58.90
2019-02-05T10:10:55.759Z,58.20
2019-02-05T10:13:41.090Z,58.00
2019-02-05T10:16:35.311Z,57.80
2019-02-05T10:19:29.320Z,57.90
2019-02-05T10:22:23.656Z,57.80
2019-02-05T10:25:37.694Z,57.10
2019-02-05T10:28:32.103Z,56.20
2019-02-05T10:31:27.011Z,55.90
2019-02-05T10:34:12.319Z,55.30
2019-02-05T10:37:06.076Z,54.60
2019-02-05T10:39:51.039Z,53.50
2019-02-05T10:42:45.414Z,52.70
2019-02-05T10:45:39.799Z,51.80
2019-02-05T10:48:25.071Z,51.00
2019-02-05T10:51:10.100Z,50.70
2019-02-05T10:53:54.430Z,50.50
2019-02-05T10:56:39.094Z,49.80
2019-02-05T10:59:24.215Z,48.70
2019-02-05T11:02:09.175Z,47.90
2019-02-05T11:04:54.363Z,46.00
2019-02-05T11:07:39.564Z,44.80
2019-02-05T11:10:33.203Z,45.30
2019-02-05T11:13:18.918Z,44.90
2019-02-05T11:16:04.007Z,45.10
2019-02-05T11:18:48.927Z,45.00
2019-02-05T11:21:33.932Z,44.00
2019-02-05T11:24:19.623Z,43.10
2019-02-05T11:27:04.626Z,41.90
2019-02-05T11:29:49.299Z,42.00
2019-02-05T11:32:34.411Z,41.90
2019-02-05T11:35:19.355Z,40.30
2019-02-05T11:38:04.676Z,39.80
2019-02-05T11:40:59.359Z,39.60
2019-02-05T11:43:44.904Z,39.00
2019-02-05T11:46:29.943Z,38.20
2019-02-05T11:49:24.125Z,37.60
2019-02-05T11:52:18.399Z,37.10
2019-02-05T11:55:11.999Z,36.60
2019-02-05T11:57:57.247Z,35.80
2019-02-05T12:01:15.738Z,35.20
2019-02-05T12:04:00.350Z,33.60
2019-02-05T12:06:53.765Z,33.80
2019-02-05T12:09:38.335Z,33.60
2019-02-05T12:12:23.135Z,33.10
2019-02-05T12:15:08.890Z,32.70
2019-02-05T12:18:02.983Z,32.20
2019-02-05T12:20:56.604Z,32.80
2019-02-05T12:23:41.027Z,32.30
2019-02-05T12:26:30.717Z,32.10
2019-02-05T12:29:34.519Z,31.80
2019-02-05T12:32:19.554Z,31.20
2019-02-05T12:35:04.455Z,31.30
2019-02-05T12:37:50.213Z,32.10
2019-02-05T12:40:35.225Z,33.30
2019-02-05T12:43:20.387Z,33.50
2019-02-05T12:46:05.360Z,33.80
2019-02-05T12:48:59.617Z,34.50
2019-02-05T12:51:53.847Z,35.60
2019-02-05T12:54:47.884Z,38.10
2019-02-05T12:57:32.598Z,39.50
2019-02-05T13:00:26.212Z,40.00
2019-02-05T13:03:11.034Z,40.20
2019-02-05T13:05:55.827Z,40.70
2019-02-05T13:08:50.464Z,41.60
2019-02-05T13:11:34.887Z,41.50
2019-02-05T13:14:19.167Z,41.50
2019-02-05T13:17:04.342Z,41.70
2019-02-05T13:19:49.848Z,41.50
2019-02-05T13:22:43.729Z,41.50
2019-02-05T13:25:38.984Z,42.00
2019-02-05T13:28:23.825Z,42.00
2019-02-05T13:31:08.836Z,42.00
2019-02-05T13:33:53.767Z,42.20
2019-02-05T13:36:37.943Z,42.60
2019-02-05T13:39:22.350Z,42.30
2019-02-05T13:42:16.027Z,41.70
2019-02-05T13:45:09.799Z,43.80
2019-02-05T13:47:54.675Z,44.30
2019-02-05T13:50:39.599Z,44.50
2019-02-05T13:53:24.659Z,44.50
2019-02-05T13:56:18.481Z,44.60
2019-02-05T13:59:03.499Z,44.50
2019-02-05T14:01:58.000Z,44.80
2019-02-05T14:04:50.875Z,44.50
2019-02-05T14:07:36.182Z,44.60
2019-02-05T14:10:21.237Z,44.90
2019-02-05T14:13:15.183Z,44.30
2019-02-05T14:16:00.064Z,44.30
2019-02-05T14:18:54.857Z,44.60
2019-02-05T14:21:30.902Z,45.10
2019-02-05T14:24:15.843Z,45.40
2019-02-05T14:27:00.583Z,45.90
2019-02-05T14:29:45.560Z,46.10
2019-02-05T14:32:30.798Z,46.00
2019-02-05T14:35:24.875Z,45.60
2019-02-05T14:38:18.492Z,45.80
2019-02-05T14:41:03.320Z,46.20
2019-02-05T14:43:48.255Z,46.00
2019-02-05T14:46:33.195Z,45.60
2019-02-05T14:49:27.106Z,44.60
2019-02-05T14:52:20.943Z,45.10
2019-02-05T14:55:05.438Z,45.30
2019-02-05T14:58:00.080Z,45.10
2019-02-05T15:00:45.944Z,44.30
2019-02-05T15:03:30.661Z,44.80
2019-02-05T15:06:14.881Z,44.70
2019-02-05T15:09:08.754Z,44.50
2019-02-05T15:12:03.096Z,44.70
2019-02-05T15:14:56.623Z,44.50
2019-02-05T15:17:41.487Z,44.50
2019-02-05T15:20:35.360Z,44.40
2019-02-05T15:23:20.695Z,44.00
2019-02-05T15:26:05.872Z,43.70
2019-02-05T15:28:52.995Z,43.20
2019-02-05T15:31:38.558Z,42.50
2019-02-05T15:34:32.595Z,41.90
2019-02-05T15:37:25.810Z,41.90
2019-02-05T15:40:10.662Z,41.90
2019-02-05T15:42:55.611Z,42.20
2019-02-05T15:45:40.577Z,42.50
2019-02-05T15:48:25.163Z,42.40
2019-02-05T15:51:09.403Z,42.50
2019-02-05T15:53:54.231Z,42.60
2019-02-05T15:56:38.967Z,42.70
2019-02-05T15:59:24.663Z,43.00
2019-02-05T16:02:09.472Z,43.40
2019-02-05T16:04:54.435Z,43.60
2019-02-05T16:07:48.620Z,45.10
2019-02-05T16:10:45.673Z,45.30
2019-02-05T16:13:30.883Z,45.90
2019-02-05T16:16:24.899Z,45.90
2019-02-05T16:19:09.870Z,46.70
2019-02-05T16:22:03.614Z,48.20
2019-02-05T16:24:48.961Z,48.70
2019-02-05T16:27:42.660Z,49.10
2019-02-05T16:30:37.088Z,49.50
2019-02-05T16:33:34.425Z,49.70
2019-02-05T16:36:27.934Z,50.90
2019-02-05T16:39:12.878Z,51.90
2019-02-05T16:42:06.791Z,52.40
2019-02-05T16:44:51.596Z,52.80
2019-02-05T16:47:36.087Z,53.50
2019-02-05T16:50:21.430Z,54.00
2019-02-05T16:53:15.396Z,54.50
2019-02-05T16:56:00.791Z,55.70
2019-02-05T16:58:46.300Z,56.80
2019-02-05T17:01:31.342Z,57.80
2019-02-05T17:04:16.023Z,57.50
2019-02-05T17:07:00.769Z,57.00
2019-02-05T17:09:45.348Z,56.70
2019-02-05T17:12:30.555Z,57.10
2019-02-05T17:15:15.449Z,57.60
2019-02-05T17:18:00.151Z,58.20
2019-02-05T17:20:45.271Z,59.00
2019-02-05T17:23:39.723Z,59.60
2019-02-05T17:26:33.392Z,60.30
2019-02-05T17:29:18.083Z,61.00
2019-02-05T17:32:02.414Z,60.70
2019-02-05T17:34:46.871Z,59.90
2019-02-05T17:37:32.324Z,59.80
2019-02-05T17:40:17.001Z,60.50
2019-02-05T17:43:02.536Z,61.20
2019-02-05T17:45:56.467Z,61.80
2019-02-05T17:48:50.147Z,61.20
2019-02-05T17:51:35.199Z,60.20
2019-02-05T17:54:29.151Z,60.80
2019-02-05T17:57:13.495Z,61.50
2019-02-05T17:59:58.392Z,63.00
2019-02-05T18:02:51.416Z,64.00
2019-02-05T18:05:28.729Z,64.50
2019-02-05T18:08:22.315Z,65.10
2019-02-05T18:11:07.438Z,65.90
2019-02-05T18:14:01.220Z,66.30
2019-02-05T18:16:45.862Z,65.90
2019-02-05T18:19:30.581Z,66.20
2019-02-05T18:22:15.342Z,66.30
2019-02-05T18:25:00.476Z,65.10
2019-02-05T18:27:54.281Z,64.10
2019-02-05T18:30:39.739Z,63.60
2019-02-05T18:33:33.767Z,64.80
2019-02-05T18:36:27.207Z,65.80
2019-02-05T18:39:12.590Z,67.10
2019-02-05T18:42:08.061Z,68.30
2019-02-05T18:44:52.987Z,68.40
2019-02-05T18:47:37.660Z,68.90
2019-02-05T18:50:22.515Z,69.40
2019-02-05T18:53:07.935Z,69.30
2019-02-05T18:56:01.683Z,68.60
2019-02-05T18:58:55.075Z,68.10
2019-02-05T19:01:39.799Z,67.50
2019-02-05T19:04:25.116Z,68.30
2019-02-05T19:07:10.284Z,69.00
2019-02-05T19:10:03.807Z,68.60
2019-02-05T19:12:57.820Z,67.80
2019-02-05T19:15:42.572Z,66.50
2019-02-05T19:18:27.989Z,66.00
2019-02-05T19:21:41.593Z,65.80
2019-02-05T19:24:51.908Z,65.70
2019-02-05T19:27:55.676Z,66.40
2019-02-05T19:30:41.515Z,68.50
2019-02-05T19:33:43.470Z,69.10
2019-02-05T19:36:37.378Z,70.00
2019-02-05T19:39:23.991Z,70.70
2019-02-05T19:42:18.311Z,70.90
2019-02-05T19:51:57.286Z,71.70
2019-02-05T19:54:45.573Z,71.90
2019-02-05T19:57:39.767Z,71.80
2019-02-05T20:00:33.711Z,71.80
2019-02-05T20:03:18.314Z,72.10
2019-02-05T20:06:04.823Z,72.60
2019-02-05T20:08:48.016Z,73.10
2019-02-05T20:11:45.259Z,73.80
2019-02-05T20:14:39.211Z,74.00
2019-02-05T20:17:33.479Z,74.00
2019-02-05T20:20:27.239Z,74.10
2019-02-05T20:23:21.320Z,74.10
2019-02-05T20:26:06.620Z,74.20
2019-02-05T20:28:51.879Z,73.10
2019-02-05T20:31:36.631Z,72.40
2019-02-05T20:34:21.182Z,72.80
2019-02-05T20:37:14.184Z,73.70
2019-02-05T20:39:58.686Z,74.20
2019-02-05T20:42:44.047Z,74.20
2019-02-05T20:45:28.671Z,74.50
2019-02-05T20:48:13.339Z,74.60
2019-02-05T20:50:57.778Z,74.70
2019-02-05T20:53:42.024Z,74.50
2019-02-05T20:56:35.932Z,75.10
2019-02-05T20:59:21.050Z,74.20
2019-02-05T21:02:14.902Z,75.00
2019-02-05T21:04:59.698Z,75.80
2019-02-05T21:07:44.892Z,75.10
2019-02-05T21:10:38.364Z,73.70
2019-02-05T21:13:23.362Z,73.30
2019-02-05T21:16:10.917Z,73.40
2019-02-05T21:18:56.039Z,73.40
2019-02-05T21:21:40.462Z,73.90
2019-02-05T21:24:26.256Z,74.50
2019-02-05T21:27:19.740Z,74.30
2019-02-05T21:30:04.528Z,74.70
2019-02-05T21:32:48.056Z,74.90
2019-02-05T21:35:34.064Z,75.70
2019-02-05T21:38:18.814Z,76.00
2019-02-05T21:41:03.472Z,76.10
2019-02-05T21:43:48.557Z,77.00
2019-02-05T21:46:33.948Z,77.00
2019-02-05T21:49:27.699Z,77.50
2019-02-05T21:52:12.630Z,77.60
2019-02-05T21:55:07.015Z,78.30
2019-02-05T21:57:51.937Z,77.90
2019-02-05T22:00:36.696Z,77.80
2019-02-05T22:03:22.183Z,77.60
2019-02-05T22:06:07.310Z,77.40
2019-02-05T22:08:51.978Z,77.10
2019-02-05T22:11:36.635Z,77.10
2019-02-05T22:14:21.138Z,77.50
2019-02-05T22:17:06.302Z,78.70
2019-02-05T22:19:51.596Z,79.70
2019-02-05T22:22:45.631Z,80.70
2019-02-05T22:25:39.523Z,81.00
2019-02-05T22:28:24.600Z,80.70
2019-02-05T22:31:18.719Z,80.40
2019-02-05T22:34:12.411Z,80.40
2019-02-05T22:36:57.591Z,80.90
2019-02-05T22:39:51.464Z,81.70
2019-02-05T22:42:36.575Z,82.20
2019-02-05T22:45:30.710Z,82.60
2019-02-05T22:48:24.397Z,82.50
2019-02-05T22:51:09.968Z,82.80
2019-02-05T22:53:55.172Z,82.80
2019-02-05T22:56:40.731Z,83.10
2019-02-05T22:59:35.244Z,83.80
2019-02-05T23:02:20.708Z,84.10
2019-02-05T23:05:05.764Z,83.80
2019-02-05T23:07:50.961Z,83.30
2019-02-05T23:10:45.968Z,82.90
2019-02-05T23:13:30.666Z,83.00
2019-02-05T23:16:14.911Z,81.90
2019-02-05T23:18:59.619Z,81.40
2019-02-05T23:21:56.087Z,80.70
2019-02-05T23:24:49.735Z,80.30
2019-02-05T23:27:34.127Z,80.10
2019-02-05T23:30:19.056Z,80.10
2019-02-05T23:33:04.071Z,80.00
2019-02-05T23:35:48.915Z,79.60
2019-02-05T23:38:33.974Z,79.30
2019-02-05T23:41:27.716Z,79.00
2019-02-05T23:44:13.182Z,78.60
2019-02-05T23:47:06.479Z,78.30
2019-02-05T23:49:51.757Z,77.80
2019-02-05T23:52:37.359Z,77.60
2019-02-05T23:55:22.479Z,77.30
2019-02-05T23:58:07.447Z,76.90
